createdAt,value
2023-05-19T00:00:48.185Z,100515.91
2023-05-19T00:03:17.520Z,100515.13
2023-05-19T00:05:45.995Z,100513.63
2023-05-19T00:08:13.597Z,100524.31
2023-05-19T00:10:40.456Z,100515.44
2023-05-19T00:13:07.328Z,100522.59
2023-05-19T00:15:34.101Z,100512.94
2023-05-19T00:18:00.708Z,100510.19
2023-05-19T00:20:27.295Z,100511.34
2023-05-19T00:22:53.758Z,100514.94
2023-05-19T00:25:20.389Z,100514.28
2023-05-19T00:27:46.910Z,100517.88
2023-05-19T00:30:13.618Z,100509.16
2023-05-19T00:32:40.600Z,100518.03
2023-05-19T00:35:07.743Z,100522.69
2023-05-19T00:37:34.252Z,100514.75
2023-05-19T00:40:00.968Z,100517.31
2023-05-19T00:42:27.526Z,100521.91
2023-05-19T00:44:54.358Z,100516.81
2023-05-19T00:47:21.836Z,100527.59
2023-05-19T00:49:48.309Z,100516.41
2023-05-19T00:52:15.084Z,100513.97
2023-05-19T00:54:41.578Z,100512.41
2023-05-19T00:57:08.134Z,100509.88
2023-05-19T00:59:34.652Z,100503.06
2023-05-19T01:02:02.814Z,100507.69
2023-05-19T01:04:29.742Z,100508.63
2023-05-19T01:06:56.548Z,100500.84
2023-05-19T01:09:23.587Z,100502.66
2023-05-19T01:11:50.672Z,100501.78
2023-05-19T01:14:18.080Z,100491.47
2023-05-19T01:16:52.056Z,100501.19
2023-05-19T01:19:40.311Z,100490.81
2023-05-19T01:22:27.749Z,100489.25
2023-05-19T01:25:11.231Z,100494.75
2023-05-19T01:28:02.062Z,100491.25
2023-05-19T01:30:40.316Z,100491.50
2023-05-19T01:33:09.347Z,100487.34
2023-05-19T01:35:37.395Z,100493.84
2023-05-19T01:38:05.034Z,100493.94
2023-05-19T01:40:32.502Z,100494.13
2023-05-19T01:43:01.096Z,100493.25
2023-05-19T01:45:29.639Z,100489.09
2023-05-19T01:47:58.299Z,100489.09
2023-05-19T01:50:25.089Z,100497.28
2023-05-19T01:52:51.795Z,100495.84
2023-05-19T01:55:18.986Z,100505.63
2023-05-19T01:58:29.683Z,100502.34
2023-05-19T02:01:16.860Z,100494.66
2023-05-19T02:04:21.448Z,100501.91
2023-05-19T02:07:01.588Z,100505.56
2023-05-19T02:09:47.927Z,100497.84
2023-05-19T02:12:20.451Z,100504.16
2023-05-19T02:14:54.700Z,100505.22
2023-05-19T02:17:22.470Z,100502.88
2023-05-19T02:19:49.166Z,100502.00
2023-05-19T02:22:15.624Z,100503.88
2023-05-19T02:24:42.547Z,100496.09
2023-05-19T02:27:09.032Z,100500.56
2023-05-19T02:29:36.121Z,100506.88
2023-05-19T02:32:02.690Z,100492.03
2023-05-19T02:34:29.214Z,100500.16
2023-05-19T02:36:56.507Z,100502.84
2023-05-19T02:39:23.148Z,100503.13
2023-05-19T02:41:49.760Z,100497.06
2023-05-19T02:44:16.282Z,100490.97
2023-05-19T02:46:42.910Z,100489.31
2023-05-19T02:49:09.435Z,100493.03
2023-05-19T02:51:35.903Z,100486.06
2023-05-19T02:54:02.662Z,100476.56
2023-05-19T02:56:29.412Z,100489.13
2023-05-19T02:58:56.299Z,100482.28
2023-05-19T03:01:23.156Z,100490.38
2023-05-19T03:03:49.947Z,100494.03
2023-05-19T03:06:17.976Z,100494.38
2023-05-19T03:08:44.947Z,100498.88
2023-05-19T03:11:11.517Z,100493.66
2023-05-19T03:13:38.206Z,100485.00
2023-05-19T03:16:04.807Z,100492.22
2023-05-19T03:18:31.722Z,100492.38
2023-05-19T03:20:58.248Z,100489.91
2023-05-19T03:23:24.807Z,100494.34
2023-05-19T03:25:54.111Z,100487.34
2023-05-19T03:28:20.624Z,100489.22
2023-05-19T03:30:50.078Z,100488.50
2023-05-19T03:33:19.349Z,100486.84
2023-05-19T03:35:46.480Z,100488.69
2023-05-19T03:38:13.839Z,100493.19
2023-05-19T03:40:47.461Z,100495.91
2023-05-19T03:43:14.672Z,100503.03
2023-05-19T03:45:46.553Z,100497.84
2023-05-19T03:48:51.825Z,100499.72
2023-05-19T03:51:18.319Z,100506.69
2023-05-19T03:53:46.949Z,100509.50
2023-05-19T03:56:13.923Z,100503.44
2023-05-19T03:58:44.481Z,100506.94
2023-05-19T04:01:11.356Z,100512.22
2023-05-19T04:03:38.094Z,100504.41
2023-05-19T04:06:04.729Z,100513.06
2023-05-19T04:08:32.065Z,100512.94
2023-05-19T04:10:58.567Z,100504.94
2023-05-19T04:13:25.053Z,100510.13
2023-05-19T04:15:51.759Z,100510.97
2023-05-19T04:18:18.282Z,100510.97
2023-05-19T04:20:44.720Z,100505.63
2023-05-19T04:23:11.176Z,100520.44
2023-05-19T04:25:38.108Z,100513.38
2023-05-19T04:28:04.666Z,100520.38
2023-05-19T04:30:31.485Z,100512.34
2023-05-19T04:32:59.701Z,100520.13
2023-05-19T04:35:26.777Z,100524.41
2023-05-19T04:37:54.391Z,100526.16
2023-05-19T04:40:25.682Z,100520.97
2023-05-19T04:42:52.666Z,100515.53
2023-05-19T04:45:19.471Z,100518.34
2023-05-19T04:47:49.912Z,100527.97
2023-05-19T04:50:16.900Z,100522.69
2023-05-19T04:52:45.623Z,100531.38
2023-05-19T04:55:12.972Z,100537.44
2023-05-19T04:57:39.619Z,100534.78
2023-05-19T05:00:08.333Z,100531.13
2023-05-19T05:02:43.895Z,100541.28
2023-05-19T05:05:10.540Z,100533.19
2023-05-19T05:07:37.561Z,100537.31
2023-05-19T05:10:04.521Z,100531.03
2023-05-19T05:12:32.342Z,100537.09
2023-05-19T05:14:59.498Z,100537.69
2023-05-19T05:17:28.250Z,100539.97
2023-05-19T05:19:55.205Z,100534.88
2023-05-19T05:22:22.081Z,100535.66
2023-05-19T05:24:48.937Z,100532.84
2023-05-19T05:27:15.585Z,100531.72
2023-05-19T05:29:42.115Z,100532.59
2023-05-19T05:32:09.566Z,100529.59
2023-05-19T05:34:39.622Z,100536.44
2023-05-19T05:37:06.094Z,100532.00
2023-05-19T05:39:33.940Z,100533.81
2023-05-19T05:42:00.962Z,100531.31
2023-05-19T05:44:27.465Z,100537.63
2023-05-19T05:46:56.171Z,100532.50
2023-05-19T05:49:23.600Z,100543.84
2023-05-19T05:52:04.965Z,100535.75
2023-05-19T05:54:35.375Z,100538.16
2023-05-19T05:57:02.614Z,100544.44
2023-05-19T05:59:29.588Z,100541.56
2023-05-19T06:01:56.356Z,100536.88
2023-05-19T06:04:23.232Z,100539.34
2023-05-19T06:06:49.927Z,100541.03
2023-05-19T06:09:20.984Z,100533.56
2023-05-19T06:11:47.444Z,100536.81
2023-05-19T06:14:14.254Z,100534.56
2023-05-19T06:17:06.980Z,100536.88
2023-05-19T06:19:34.352Z,100537.38
2023-05-19T06:22:00.859Z,100534.88
2023-05-19T06:24:27.414Z,100539.47
2023-05-19T06:26:54.061Z,100536.97
2023-05-19T06:29:20.629Z,100537.06
2023-05-19T06:31:48.901Z,100527.47
2023-05-19T06:34:17.702Z,100535.72
2023-05-19T06:36:46.137Z,100538.66
2023-05-19T06:39:13.089Z,100547.28
2023-05-19T06:41:40.385Z,100547.28
2023-05-19T06:44:10.986Z,100548.72
2023-05-19T06:46:37.556Z,100548.31
2023-05-19T06:49:04.817Z,100539.25
2023-05-19T06:51:36.442Z,100546.75
2023-05-19T06:54:03.106Z,100550.63
2023-05-19T06:56:29.886Z,100551.84
2023-05-19T06:58:56.412Z,100547.78
2023-05-19T07:01:30.132Z,100554.19
2023-05-19T07:03:57.243Z,100541.50
2023-05-19T07:06:23.755Z,100542.25
2023-05-19T07:08:51.790Z,100537.00
2023-05-19T07:11:18.842Z,100527.94
2023-05-19T07:13:45.346Z,100522.88
2023-05-19T07:16:14.400Z,100527.16
2023-05-19T07:18:40.976Z,100533.72
2023-05-19T07:21:07.553Z,100521.47
2023-05-19T07:23:34.180Z,100517.44
2023-05-19T07:26:00.664Z,100518.22
2023-05-19T07:28:27.121Z,100518.00
2023-05-19T07:30:53.586Z,100517.06
2023-05-19T07:33:20.317Z,100503.34
2023-05-19T07:35:47.137Z,100504.53
2023-05-19T07:38:13.664Z,100498.78
2023-05-19T07:40:40.152Z,100495.69
2023-05-19T07:43:06.763Z,100497.69
2023-05-19T07:45:33.395Z,100489.94
2023-05-19T07:47:59.988Z,100494.19
2023-05-19T07:50:26.738Z,100487.69
2023-05-19T07:52:53.293Z,100485.31
2023-05-19T07:55:23.018Z,100482.97
2023-05-19T07:57:50.762Z,100472.78
2023-05-19T08:00:17.685Z,100472.09
2023-05-19T08:02:44.665Z,100474.31
2023-05-19T08:05:11.545Z,100475.66
2023-05-19T08:07:38.174Z,100459.59
2023-05-19T08:10:04.904Z,100465.56
2023-05-19T08:12:31.448Z,100468.59
2023-05-19T08:15:00.407Z,100467.16
2023-05-19T08:17:27.737Z,100471.91
2023-05-19T08:19:54.221Z,100466.50
2023-05-19T08:22:20.739Z,100470.31
2023-05-19T08:24:49.710Z,100476.41
2023-05-19T08:27:16.618Z,100476.53
2023-05-19T08:29:43.372Z,100475.44
2023-05-19T08:32:12.443Z,100463.97
2023-05-19T08:34:39.819Z,100464.75
2023-05-19T08:37:07.419Z,100464.88
2023-05-19T08:39:34.816Z,100471.25
2023-05-19T08:42:01.544Z,100465.53
2023-05-19T08:44:28.136Z,100461.06
2023-05-19T08:46:55.280Z,100460.13
2023-05-19T08:49:28.380Z,100450.72
2023-05-19T08:52:21.000Z,100452.78
2023-05-19T08:54:54.633Z,100453.63
2023-05-19T08:57:23.623Z,100452.03
2023-05-19T08:59:51.138Z,100443.00
2023-05-19T09:02:18.573Z,100436.31
2023-05-19T09:04:47.629Z,100433.66
2023-05-19T09:07:15.134Z,100436.19
2023-05-19T09:09:43.637Z,100422.16
2023-05-19T09:12:13.563Z,100435.16
2023-05-19T09:14:40.089Z,100434.81
2023-05-19T09:17:06.899Z,100429.00
2023-05-19T09:19:33.434Z,100430.22
2023-05-19T09:22:03.533Z,100426.44
2023-05-19T09:24:30.193Z,100436.00
2023-05-19T09:26:58.501Z,100424.97
2023-05-19T09:29:26.393Z,100423.88
2023-05-19T09:32:00.606Z,100422.53
2023-05-19T09:34:27.620Z,100415.56
2023-05-19T09:36:54.222Z,100428.13
2023-05-19T09:39:25.129Z,100419.31
2023-05-19T09:41:56.014Z,100421.66
2023-05-19T09:44:32.758Z,100424.41
2023-05-19T09:46:59.989Z,100412.63
2023-05-19T09:49:31.097Z,100419.28
2023-05-19T09:52:03.483Z,100409.66
2023-05-19T09:54:32.122Z,100405.66
2023-05-19T09:56:59.264Z,100407.00
2023-05-19T09:59:26.392Z,100398.78
2023-05-19T10:01:54.700Z,100400.22
2023-05-19T10:04:21.272Z,100388.25
2023-05-19T10:06:53.391Z,100387.13
2023-05-19T10:09:27.416Z,100380.53
2023-05-19T10:11:56.192Z,100378.22
2023-05-19T10:14:26.758Z,100396.78
2023-05-19T10:16:58.404Z,100391.56
2023-05-19T10:19:26.222Z,100381.84
2023-05-19T10:21:53.269Z,100381.09
2023-05-19T10:24:21.322Z,100370.25
2023-05-19T10:27:06.044Z,100375.50
2023-05-19T10:29:35.535Z,100361.72
2023-05-19T10:32:13.926Z,100369.03
2023-05-19T10:35:23.020Z,100364.41
2023-05-19T10:38:40.058Z,100346.06
2023-05-19T10:41:19.527Z,100364.28
2023-05-19T10:44:09.575Z,100352.91
2023-05-19T10:46:36.254Z,100358.41
2023-05-19T10:49:02.806Z,100353.19
2023-05-19T10:51:32.591Z,100359.25
2023-05-19T10:54:02.837Z,100350.25
2023-05-19T10:56:36.670Z,100366.69
2023-05-19T10:59:03.451Z,100352.34
2023-05-19T11:01:34.391Z,100347.28
2023-05-19T11:04:09.013Z,100342.75
2023-05-19T11:06:36.405Z,100346.41
2023-05-19T11:09:14.183Z,100346.41
2023-05-19T11:11:50.156Z,100338.22
2023-05-19T11:14:22.896Z,100345.72
2023-05-19T11:16:52.006Z,100342.88
2023-05-19T11:19:29.089Z,100358.25
2023-05-19T11:21:56.482Z,100350.63
2023-05-19T11:24:52.306Z,100350.63
2023-05-19T11:27:24.739Z,100341.47
2023-05-19T11:29:52.061Z,100348.53
2023-05-19T11:32:21.196Z,100345.13
2023-05-19T11:34:48.228Z,100352.31
2023-05-19T11:37:14.746Z,100346.97
2023-05-19T11:39:42.270Z,100341.75
2023-05-19T11:42:09.736Z,100340.22
2023-05-19T11:44:36.476Z,100349.78
2023-05-19T11:47:04.338Z,100340.06
2023-05-19T11:49:30.874Z,100328.78
2023-05-19T11:52:01.038Z,100338.66
2023-05-19T11:54:29.463Z,100330.31
2023-05-19T11:56:56.392Z,100320.72
2023-05-19T11:59:34.923Z,100329.28
2023-05-19T12:02:04.087Z,100319.09
2023-05-19T12:04:31.480Z,100331.75
2023-05-19T12:06:58.097Z,100326.25
2023-05-19T12:09:24.721Z,100328.78
2023-05-19T12:11:52.494Z,100315.63
2023-05-19T12:14:19.092Z,100322.25
2023-05-19T12:16:45.655Z,100328.78
2023-05-19T12:19:12.240Z,100331.03
2023-05-19T12:21:39.152Z,100324.28
2023-05-19T12:24:06.526Z,100321.69
2023-05-19T12:26:33.321Z,100323.19
2023-05-19T12:28:59.811Z,100313.94
2023-05-19T12:31:26.470Z,100308.50
2023-05-19T12:33:53.021Z,100319.75
2023-05-19T12:36:19.473Z,100323.66
2023-05-19T12:38:47.595Z,100313.53
2023-05-19T12:41:14.653Z,100314.94
2023-05-19T12:43:41.214Z,100308.25
2023-05-19T12:46:14.157Z,100305.66
2023-05-19T12:48:44.345Z,100303.56
2023-05-19T12:51:20.122Z,100295.94
2023-05-19T12:53:47.460Z,100296.28
2023-05-19T12:56:15.059Z,100288.72
2023-05-19T12:58:42.624Z,100295.69
2023-05-19T13:01:16.287Z,100286.97
2023-05-19T13:03:42.929Z,100292.94
2023-05-19T13:06:10.324Z,100288.94
2023-05-19T13:08:37.616Z,100281.03
2023-05-19T13:11:04.221Z,100294.59
2023-05-19T13:13:30.699Z,100290.78
2023-05-19T13:15:57.285Z,100290.31
2023-05-19T13:18:24.313Z,100283.88
2023-05-19T13:20:52.703Z,100292.63
2023-05-19T13:23:19.231Z,100285.25
2023-05-19T13:25:45.973Z,100276.66
2023-05-19T13:28:12.728Z,100287.84
2023-05-19T13:30:40.823Z,100282.13
2023-05-19T13:33:07.942Z,100269.16
2023-05-19T13:35:37.608Z,100265.75
2023-05-19T13:38:05.602Z,100278.47
2023-05-19T13:40:35.465Z,100273.47
2023-05-19T13:43:03.151Z,100272.50
2023-05-19T13:45:29.870Z,100273.84
2023-05-19T13:47:56.840Z,100274.31
2023-05-19T13:50:23.452Z,100255.88
2023-05-19T13:52:49.911Z,100276.03
2023-05-19T13:55:16.593Z,100270.84
2023-05-19T13:57:44.281Z,100268.22
2023-05-19T14:00:11.372Z,100265.34
2023-05-19T14:02:40.791Z,100256.47
2023-05-19T14:05:07.963Z,100261.47
2023-05-19T14:07:35.122Z,100264.34
2023-05-19T14:10:02.709Z,100256.28
2023-05-19T14:12:39.381Z,100254.81
2023-05-19T14:15:11.571Z,100266.81
2023-05-19T14:17:38.232Z,100263.94
2023-05-19T14:20:05.393Z,100260.25
2023-05-19T14:22:32.173Z,100260.81
2023-05-19T14:25:00.221Z,100248.22
2023-05-19T14:27:26.775Z,100251.25
2023-05-19T14:29:53.360Z,100251.44
2023-05-19T14:32:20.184Z,100254.47
2023-05-19T14:34:46.905Z,100242.00
2023-05-19T14:37:13.663Z,100248.09
2023-05-19T14:39:40.212Z,100247.00
2023-05-19T14:42:06.723Z,100242.44
2023-05-19T14:44:33.292Z,100240.25
2023-05-19T14:47:01.138Z,100242.44
2023-05-19T14:49:27.712Z,100243.41
2023-05-19T14:51:54.330Z,100249.78
2023-05-19T14:54:20.847Z,100246.09
2023-05-19T14:56:47.403Z,100245.25
2023-05-19T14:59:13.919Z,100235.81
2023-05-19T15:01:40.408Z,100243.56
2023-05-19T15:04:07.004Z,100242.72
2023-05-19T15:06:33.728Z,100244.25
2023-05-19T15:09:00.357Z,100239.16
2023-05-19T15:11:26.829Z,100233.78
2023-05-19T15:13:53.286Z,100239.44
2023-05-19T15:16:19.774Z,100229.84
2023-05-19T15:18:46.391Z,100228.69
2023-05-19T15:21:12.888Z,100231.25
2023-05-19T15:23:39.349Z,100224.53
2023-05-19T15:26:05.956Z,100227.81
2023-05-19T15:28:33.505Z,100228.59
2023-05-19T15:31:00.111Z,100240.53
2023-05-19T15:33:26.719Z,100228.78
2023-05-19T15:35:54.187Z,100229.94
2023-05-19T15:38:20.717Z,100228.59
2023-05-19T15:40:47.256Z,100229.78
2023-05-19T15:43:13.988Z,100227.47
2023-05-19T15:45:40.743Z,100221.44
2023-05-19T15:48:07.326Z,100233.19
2023-05-19T15:50:33.982Z,100227.22
2023-05-19T15:53:00.702Z,100233.25
2023-05-19T15:55:27.222Z,100226.72
2023-05-19T15:57:53.697Z,100220.69
2023-05-19T16:00:20.670Z,100223.88
2023-05-19T16:02:47.486Z,100216.13
2023-05-19T16:05:14.132Z,100211.56
2023-05-19T16:07:42.008Z,100211.09
2023-05-19T16:10:08.836Z,100206.41
2023-05-19T16:12:36.464Z,100213.44
2023-05-19T16:15:03.283Z,100211.44
2023-05-19T16:17:29.900Z,100207.41
2023-05-19T16:19:56.567Z,100206.06
2023-05-19T16:22:24.628Z,100201.00
2023-05-19T16:24:51.927Z,100206.19
2023-05-19T16:27:18.663Z,100199.41
2023-05-19T16:29:45.198Z,100196.25
2023-05-19T16:32:11.820Z,100200.56
2023-05-19T16:34:38.327Z,100208.34
2023-05-19T16:37:04.816Z,100202.06
2023-05-19T16:39:31.320Z,100200.00
2023-05-19T16:41:57.803Z,100194.59
2023-05-19T16:44:25.590Z,100197.84
2023-05-19T16:46:52.116Z,100196.97
2023-05-19T16:49:18.603Z,100192.78
2023-05-19T16:51:46.196Z,100190.38
2023-05-19T16:54:14.007Z,100183.66
2023-05-19T16:56:40.502Z,100182.13
2023-05-19T16:59:08.737Z,100182.41
2023-05-19T17:01:35.279Z,100185.41
2023-05-19T17:04:01.797Z,100188.09
2023-05-19T17:06:28.402Z,100186.56
2023-05-19T17:08:55.101Z,100180.50
2023-05-19T17:11:21.690Z,100184.06
2023-05-19T17:13:48.202Z,100176.00
2023-05-19T17:16:14.965Z,100180.38
2023-05-19T17:18:41.644Z,100179.50
2023-05-19T17:21:08.156Z,100184.88
2023-05-19T17:23:34.685Z,100182.53
2023-05-19T17:26:01.737Z,100178.94
2023-05-19T17:28:28.226Z,100184.91
2023-05-19T17:30:55.097Z,100179.16
2023-05-19T17:33:21.628Z,100184.81
2023-05-19T17:35:48.162Z,100187.13
2023-05-19T17:38:14.612Z,100192.09
2023-05-19T17:40:42.135Z,100182.00
2023-05-19T17:43:08.764Z,100189.81
2023-05-19T17:45:35.542Z,100192.94
2023-05-19T17:48:02.262Z,100188.88
2023-05-19T17:50:28.789Z,100183.56
2023-05-19T17:52:56.130Z,100187.00
2023-05-19T17:55:24.705Z,100195.22
2023-05-19T17:57:51.296Z,100197.34
2023-05-19T18:00:18.414Z,100192.56
2023-05-19T18:02:45.250Z,100193.00
2023-05-19T18:05:12.359Z,100188.97
2023-05-19T18:07:39.723Z,100190.25
2023-05-19T18:10:07.051Z,100202.28
2023-05-19T18:12:33.566Z,100198.22
2023-05-19T18:15:00.079Z,100202.16
2023-05-19T18:17:26.688Z,100197.38
2023-05-19T18:19:54.458Z,100199.22
2023-05-19T18:22:21.216Z,100198.47
2023-05-19T18:24:47.822Z,100198.09
2023-05-19T18:27:14.633Z,100206.59
2023-05-19T18:29:41.861Z,100199.84
2023-05-19T18:32:08.712Z,100202.78
2023-05-19T18:34:35.328Z,100198.88
2023-05-19T18:37:01.802Z,100195.50
2023-05-19T18:39:29.309Z,100201.16
2023-05-19T18:41:55.939Z,100190.72
2023-05-19T18:44:22.457Z,100201.00
2023-05-19T18:46:48.990Z,100204.41
2023-05-19T18:49:15.727Z,100196.13
2023-05-19T18:51:42.438Z,100198.66
2023-05-19T18:54:09.035Z,100189.38
2023-05-19T18:56:35.633Z,100198.25
2023-05-19T18:59:02.132Z,100198.69
2023-05-19T19:01:28.878Z,100197.44
2023-05-19T19:03:55.409Z,100195.75
2023-05-19T19:06:23.114Z,100196.31
2023-05-19T19:08:49.778Z,100202.66
2023-05-19T19:11:16.468Z,100210.56
2023-05-19T19:13:43.683Z,100205.16
2023-05-19T19:16:10.264Z,100206.25
2023-05-19T19:18:36.901Z,100209.53
2023-05-19T19:21:05.367Z,100215.56
2023-05-19T19:23:32.267Z,100212.72
2023-05-19T19:25:58.708Z,100213.53
2023-05-19T19:28:25.215Z,100224.06
2023-05-19T19:30:51.681Z,100225.03
2023-05-19T19:33:18.236Z,100224.59
2023-05-19T19:35:46.621Z,100227.78
2023-05-19T19:38:13.504Z,100222.28
2023-05-19T19:40:39.979Z,100224.78
2023-05-19T19:43:06.433Z,100219.25
2023-05-19T19:45:34.622Z,100230.69
2023-05-19T19:48:01.675Z,100230.78
2023-05-19T19:50:28.440Z,100235.09
2023-05-19T19:52:54.892Z,100228.84
2023-05-19T19:55:21.552Z,100233.97
2023-05-19T19:57:49.332Z,100239.97
2023-05-19T20:00:16.585Z,100238.06
2023-05-19T20:03:02.640Z,100230.84
2023-05-19T20:05:30.039Z,100235.25
2023-05-19T20:07:56.597Z,100241.09
2023-05-19T20:10:23.067Z,100233.72
2023-05-19T20:12:50.485Z,100238.81
2023-05-19T20:15:17.129Z,100241.03
2023-05-19T20:17:43.682Z,100236.19
2023-05-19T20:20:12.100Z,100245.38
2023-05-19T20:22:39.017Z,100241.28
2023-05-19T20:25:06.016Z,100240.22
2023-05-19T20:27:32.464Z,100238.78
2023-05-19T20:29:58.965Z,100240.97
2023-05-19T20:32:25.484Z,100241.31
2023-05-19T20:34:52.201Z,100240.97
2023-05-19T20:37:18.703Z,100231.63
2023-05-19T20:39:45.279Z,100232.03
2023-05-19T20:42:12.191Z,100236.00
2023-05-19T20:44:38.757Z,100240.75
2023-05-19T20:47:07.881Z,100233.13
2023-05-19T20:49:34.736Z,100244.97
2023-05-19T20:52:01.189Z,100245.06
2023-05-19T20:54:27.631Z,100241.84
2023-05-19T20:56:54.096Z,100239.25
2023-05-19T20:59:20.689Z,100244.00
2023-05-19T21:01:47.456Z,100241.69
2023-05-19T21:04:14.365Z,100232.13
2023-05-19T21:06:41.008Z,100236.72
2023-05-19T21:09:07.624Z,100231.66
2023-05-19T21:11:34.519Z,100234.56
2023-05-19T21:14:03.829Z,100240.09
2023-05-19T21:16:30.701Z,100238.41
2023-05-19T21:18:57.394Z,100233.47
2023-05-19T21:21:23.877Z,100236.59
2023-05-19T21:23:50.361Z,100234.16
2023-05-19T21:26:16.856Z,100231.84
2023-05-19T21:28:43.677Z,100241.03
2023-05-19T21:31:10.157Z,100243.81
2023-05-19T21:33:36.767Z,100235.09
2023-05-19T21:36:03.215Z,100237.03
2023-05-19T21:38:29.771Z,100234.50
2023-05-19T21:40:56.197Z,100236.41
2023-05-19T21:43:23.132Z,100245.56
2023-05-19T21:45:49.726Z,100243.84
2023-05-19T21:48:16.468Z,100249.28
2023-05-19T21:50:43.140Z,100246.75
2023-05-19T21:53:09.696Z,100250.63
2023-05-19T21:55:36.217Z,100252.53
2023-05-19T21:58:02.937Z,100254.44
2023-05-19T22:00:29.680Z,100249.50
2023-05-19T22:02:56.286Z,100254.94
2023-05-19T22:05:23.031Z,100247.16
2023-05-19T22:07:49.506Z,100248.13
2023-05-19T22:10:16.039Z,100248.13
2023-05-19T22:12:42.492Z,100249.13
2023-05-19T22:15:09.755Z,100233.38
2023-05-19T22:17:36.637Z,100237.94
2023-05-19T22:20:03.279Z,100242.31
2023-05-19T22:22:29.847Z,100231.81
2023-05-19T22:24:56.602Z,100236.38
2023-05-19T22:27:23.123Z,100237.13
2023-05-19T22:29:49.674Z,100241.47
2023-05-19T22:32:18.191Z,100237.00
2023-05-19T22:34:45.132Z,100232.53
2023-05-19T22:37:11.770Z,100233.50
2023-05-19T22:39:38.954Z,100236.38
2023-05-19T22:42:06.101Z,100232.75
2023-05-19T22:44:32.649Z,100233.84
2023-05-19T22:46:59.194Z,100232.25
2023-05-19T22:49:27.272Z,100224.41
2023-05-19T22:51:53.860Z,100222.69
2023-05-19T22:54:20.353Z,100223.66
2023-05-19T22:56:48.660Z,100220.41
2023-05-19T22:59:17.545Z,100217.84
2023-05-19T23:01:46.410Z,100216.16
2023-05-19T23:04:13.227Z,100211.06
2023-05-19T23:06:39.697Z,100217.56
2023-05-19T23:09:06.162Z,100210.56
2023-05-19T23:11:32.744Z,100210.19
2023-05-19T23:13:59.367Z,100213.78
2023-05-19T23:16:25.922Z,100213.03
2023-05-19T23:18:52.682Z,100206.25
2023-05-19T23:21:19.348Z,100198.28
2023-05-19T23:23:45.988Z,100207.34
2023-05-19T23:26:13.436Z,100203.09
2023-05-19T23:28:41.916Z,100200.69
2023-05-19T23:31:08.626Z,100199.81
2023-05-19T23:33:35.285Z,100200.88
2023-05-19T23:36:06.885Z,100201.00
2023-05-19T23:38:33.845Z,100203.28
2023-05-19T23:41:00.497Z,100199.97
2023-05-19T23:43:26.935Z,100200.44
2023-05-19T23:45:53.437Z,100196.19
2023-05-19T23:48:20.108Z,100192.69
2023-05-19T23:50:46.609Z,100192.81
2023-05-19T23:53:13.089Z,100187.19
2023-05-19T23:55:39.543Z,100180.31
2023-05-19T23:58:06.265Z,100179.47
